CheckWX is a tool to help pilots better visualize weather data.  It is not intended as a substitute for an official pre-flight weather briefing.

06:12:14 UTC

KOMA METAR
Eppley Airfield Airport
Omaha, Nebraska, USA
Current

20 mins ago

KOMA 230552Z 36010KT 10SM OVC013 11/07 A3012 RMK AO2 SLP200 T01060067 10117 20106 402170106 51009
Observed
Apr-23 @ 05:52 UTC
Wind
  • 360° at 10 KTS
Visibility
10 SM
Flight Rules
MVFR
Cloud Levels
  • Overcast at 1,300' AGL
Temperature
11°C / 52°F
Dewpoint
C / 45°F
Humidity
77%
Altimeter
30.12" Hg
Pressure
1020.02 hPa
Previous

40 mins ago

KOMA 230532Z 34014KT 10SM OVC013 11/07 A3011 RMK AO2 T01060072
Observed
Apr-23 @ 05:32 UTC
Wind
  • 340° at 14 KTS
Visibility
10 SM
Flight Rules
MVFR
Cloud Levels
  • Overcast at 1,300' AGL
Temperature
11°C / 52°F
Dewpoint
C / 45°F
Humidity
77%
Altimeter
30.11" Hg
Pressure
1019.62 hPa
Previous

1 hour ago

KOMA 230452Z 35014G21KT 10SM OVC015 11/07 A3011 RMK AO2 SLP198 CIG 013V017 T01110072
Observed
Apr-23 @ 04:52 UTC
Wind
  • 350° at 14 KTS
  • Gusting to 21 KTS
Visibility
10 SM
Flight Rules
MVFR
Cloud Levels
  • Overcast at 1,500' AGL
Temperature
11°C / 52°F
Dewpoint
C / 45°F
Humidity
77%
Altimeter
30.11" Hg
Pressure
1019.62 hPa